createdAt,value
2022-12-13T00:01:54.977Z,79.21
2022-12-13T00:07:01.449Z,79.56
2022-12-13T00:12:04.108Z,79.38
2022-12-13T00:17:06.876Z,79.16
2022-12-13T00:22:10.751Z,79.41
2022-12-13T00:27:13.352Z,79.04
2022-12-13T00:32:15.947Z,79.29
2022-12-13T00:37:20.009Z,78.30
2022-12-13T00:42:22.531Z,77.66
2022-12-13T00:47:25.023Z,78.29
2022-12-13T00:52:29.312Z,79.32
2022-12-13T00:57:31.892Z,79.30
2022-12-13T01:02:34.529Z,79.62
2022-12-13T01:07:38.660Z,80.75
2022-12-13T01:12:41.177Z,80.37
2022-12-13T01:17:44.118Z,80.44
2022-12-13T01:22:48.346Z,78.92
2022-12-13T01:27:51.412Z,78.46
2022-12-13T01:32:53.952Z,80.05
2022-12-13T01:37:59.113Z,80.79
2022-12-13T01:43:01.654Z,80.24
2022-12-13T01:48:18.880Z,80.03
2022-12-13T01:53:24.002Z,78.57
2022-12-13T01:58:29.269Z,79.13
2022-12-13T02:03:32.709Z,78.73
2022-12-13T02:08:38.031Z,78.27
2022-12-13T02:13:40.887Z,78.30
2022-12-13T02:18:49.755Z,79.00
2022-12-13T02:24:19.369Z,79.72
2022-12-13T02:29:39.573Z,79.54
2022-12-13T02:34:47.063Z,80.88
2022-12-13T02:39:52.209Z,79.48
2022-12-13T02:44:58.166Z,80.63
2022-12-13T02:50:05.194Z,78.37
2022-12-13T02:55:08.931Z,78.30
2022-12-13T03:00:13.458Z,77.44
2022-12-13T03:05:42.252Z,78.47
2022-12-13T03:10:52.100Z,80.15
2022-12-13T03:15:57.569Z,79.08
2022-12-13T03:21:02.490Z,79.93
2022-12-13T03:26:07.832Z,79.08
2022-12-13T03:31:12.387Z,77.58
2022-12-13T03:36:16.932Z,77.55
2022-12-13T03:41:20.387Z,77.76
2022-12-13T03:46:23.187Z,77.59
2022-12-13T03:51:27.072Z,78.77
2022-12-13T03:56:29.636Z,78.78
2022-12-13T04:01:32.376Z,77.66
2022-12-13T04:06:36.252Z,77.48
2022-12-13T04:11:56.266Z,78.93
2022-12-13T04:16:58.788Z,79.29
2022-12-13T04:22:02.664Z,80.20
2022-12-13T04:27:05.415Z,79.09
2022-12-13T04:32:26.002Z,79.07
2022-12-13T04:37:31.394Z,78.49
2022-12-13T04:42:33.906Z,79.59
2022-12-13T04:47:36.371Z,79.01
2022-12-13T04:52:40.714Z,77.60
2022-12-13T04:57:43.176Z,77.85
2022-12-13T05:02:45.688Z,77.02
2022-12-13T05:07:49.592Z,77.47
2022-12-13T05:12:52.083Z,77.80
2022-12-13T05:17:54.597Z,77.17
2022-12-13T05:22:59.013Z,77.25
2022-12-13T05:28:27.100Z,78.47
2022-12-13T05:33:24.002Z,77.56
2022-12-13T05:38:27.847Z,76.55
2022-12-13T05:43:42.337Z,77.24
2022-12-13T05:48:46.094Z,75.96
2022-12-13T05:53:53.303Z,77.06
2022-12-13T05:58:56.124Z,76.05
2022-12-13T06:03:59.012Z,76.54
2022-12-13T06:09:03.729Z,75.60
2022-12-13T06:14:06.246Z,76.66
2022-12-13T06:19:25.403Z,77.01
2022-12-13T06:24:29.154Z,77.02
2022-12-13T06:29:31.727Z,78.03
2022-12-13T06:34:34.835Z,80.54
2022-12-13T06:39:40.055Z,80.77
2022-12-13T06:44:43.085Z,79.62
2022-12-13T06:49:46.661Z,80.19
2022-12-13T06:54:54.205Z,81.05
2022-12-13T06:59:59.563Z,80.45
2022-12-13T07:05:02.021Z,78.71
2022-12-13T07:10:22.944Z,78.56
2022-12-13T07:15:25.626Z,77.58
2022-12-13T07:20:28.173Z,77.56
2022-12-13T07:25:33.586Z,79.41
2022-12-13T07:30:40.920Z,79.74
2022-12-13T07:35:44.425Z,78.47
2022-12-13T07:40:48.371Z,77.35
2022-12-13T07:45:50.994Z,78.98
2022-12-13T07:50:54.794Z,77.50
2022-12-13T07:56:01.986Z,76.32
2022-12-13T08:01:05.527Z,75.73
2022-12-13T08:06:08.962Z,75.99
2022-12-13T08:11:15.410Z,75.72
2022-12-13T08:16:27.402Z,75.74
2022-12-13T08:27:01.975Z,76.44
2022-12-13T08:32:07.351Z,76.55
2022-12-13T08:37:09.885Z,76.85
2022-12-13T08:42:18.201Z,76.86
2022-12-13T08:47:26.044Z,76.74
2022-12-13T08:52:29.254Z,75.39
2022-12-13T08:57:33.195Z,75.16
2022-12-13T09:02:38.426Z,75.79
2022-12-13T09:07:42.076Z,78.39
2022-12-13T09:12:45.922Z,76.72
2022-12-13T09:17:52.085Z,76.35
2022-12-13T09:23:02.086Z,76.98
2022-12-13T09:28:06.740Z,76.11
2022-12-13T09:33:18.218Z,76.21
2022-12-13T09:38:31.595Z,76.88
2022-12-13T09:43:43.154Z,76.40
2022-12-13T09:48:48.389Z,76.83
2022-12-13T09:53:52.691Z,73.77
2022-12-13T09:58:57.827Z,72.85
2022-12-13T10:04:01.665Z,74.71
2022-12-13T10:09:07.505Z,68.01
2022-12-13T10:14:13.862Z,65.09
2022-12-13T10:19:28.900Z,63.65
2022-12-13T10:24:49.080Z,67.63
2022-12-13T10:30:00.570Z,70.00
2022-12-13T10:35:12.594Z,73.24
2022-12-13T10:40:32.769Z,73.05
2022-12-13T10:45:37.677Z,76.25
2022-12-13T10:50:40.523Z,79.95
2022-12-13T10:55:43.480Z,81.05
2022-12-13T11:00:49.836Z,76.97
2022-12-13T11:06:03.088Z,74.21
2022-12-13T11:11:06.554Z,74.00
2022-12-13T11:16:28.918Z,75.75
2022-12-13T11:21:34.667Z,78.61
2022-12-13T11:26:39.338Z,79.10
2022-12-13T11:31:47.733Z,77.83
2022-12-13T11:36:56.230Z,73.06
2022-12-13T11:42:02.330Z,57.28
2022-12-13T11:47:07.198Z,52.88
2022-12-13T11:52:17.605Z,49.76
2022-12-13T11:57:28.409Z,50.93
2022-12-13T12:02:34.606Z,52.71
2022-12-13T12:13:21.501Z,58.82
2022-12-13T12:18:24.367Z,48.49
2022-12-13T12:23:41.850Z,54.13
2022-12-13T12:28:55.870Z,50.62
2022-12-13T12:34:10.806Z,49.47
2022-12-13T12:39:26.515Z,45.66
2022-12-13T12:44:33.672Z,43.02
2022-12-13T12:49:51.306Z,42.13
2022-12-13T12:55:03.293Z,43.27
2022-12-13T13:00:09.704Z,43.43
2022-12-13T13:05:16.735Z,46.04
2022-12-13T13:10:26.057Z,50.89
2022-12-13T13:15:46.303Z,53.02
2022-12-13T13:21:09.040Z,55.53
2022-12-13T13:26:27.186Z,58.99
2022-12-13T13:32:00.946Z,59.17
2022-12-13T13:37:07.560Z,59.70
2022-12-13T13:42:17.920Z,61.82
2022-12-13T13:47:32.727Z,63.07
2022-12-13T13:52:41.307Z,63.61
2022-12-13T13:58:09.709Z,64.82
2022-12-13T14:03:37.194Z,64.32
2022-12-13T14:08:47.105Z,65.31
2022-12-13T14:14:23.457Z,65.60
2022-12-13T14:19:42.306Z,65.93
2022-12-13T14:24:59.518Z,66.40
2022-12-13T14:30:17.864Z,67.13
2022-12-13T14:35:27.141Z,69.22
2022-12-13T14:40:31.946Z,75.95
2022-12-13T14:45:37.569Z,75.65
2022-12-13T14:50:41.992Z,73.18
2022-12-13T14:56:03.751Z,72.34
2022-12-13T15:01:24.694Z,70.87
2022-12-13T15:06:32.274Z,72.08
2022-12-13T15:11:36.613Z,72.08
2022-12-13T15:16:40.557Z,71.56
2022-12-13T15:21:58.621Z,72.39
2022-12-13T15:27:04.758Z,73.79
2022-12-13T15:32:12.601Z,74.08
2022-12-13T15:37:28.431Z,74.12
2022-12-13T15:42:33.464Z,78.33
2022-12-13T15:47:37.465Z,75.87
2022-12-13T15:52:41.192Z,77.84
2022-12-13T15:57:50.194Z,78.18
2022-12-13T16:02:56.536Z,83.11
2022-12-13T16:08:00.602Z,86.28
2022-12-13T16:13:27.279Z,88.26
2022-12-13T16:18:32.977Z,87.65
2022-12-13T16:23:35.397Z,86.69
2022-12-13T16:28:37.868Z,83.30
2022-12-13T16:33:42.911Z,80.11
2022-12-13T16:38:45.797Z,79.94
2022-12-13T16:43:52.062Z,85.72
2022-12-13T16:48:56.176Z,85.00
2022-12-13T16:53:58.723Z,81.48
2022-12-13T16:59:01.156Z,77.87
2022-12-13T17:04:11.056Z,78.30
2022-12-13T17:09:16.417Z,81.76
2022-12-13T17:14:18.943Z,83.99
2022-12-13T17:19:22.936Z,85.70
2022-12-13T17:24:25.437Z,81.29
2022-12-13T17:29:27.980Z,78.85
2022-12-13T17:34:31.886Z,77.32
2022-12-13T17:39:34.365Z,79.11
2022-12-13T17:44:37.043Z,78.30
2022-12-13T17:49:40.941Z,79.81
2022-12-13T17:54:43.393Z,79.77
2022-12-13T17:59:45.843Z,79.04
2022-12-13T18:04:49.874Z,78.57
2022-12-13T18:09:52.373Z,79.46
2022-12-13T18:14:56.699Z,80.18
2022-12-13T18:20:00.980Z,78.95
2022-12-13T18:25:03.570Z,78.23
2022-12-13T18:30:06.459Z,77.04
2022-12-13T18:35:10.685Z,77.52
2022-12-13T18:40:13.357Z,83.38
2022-12-13T18:45:15.987Z,84.32
2022-12-13T18:50:20.008Z,82.15
2022-12-13T18:55:22.517Z,79.99
2022-12-13T19:00:26.783Z,80.47
2022-12-13T19:05:30.635Z,78.75
2022-12-13T19:10:33.285Z,77.36
2022-12-13T19:15:35.736Z,84.19
2022-12-13T19:20:40.554Z,79.84
2022-12-13T19:25:43.105Z,77.25
2022-12-13T19:30:46.603Z,77.01
2022-12-13T19:35:50.526Z,75.78
2022-12-13T19:40:53.277Z,76.93
2022-12-13T19:45:55.724Z,77.42
2022-12-13T19:51:03.452Z,79.34
2022-12-13T19:56:09.294Z,81.11
2022-12-13T20:01:12.524Z,78.15
2022-12-13T20:06:17.384Z,78.45
2022-12-13T20:11:20.897Z,76.99
2022-12-13T20:16:24.218Z,76.28
2022-12-13T20:21:28.413Z,75.63
2022-12-13T20:26:31.861Z,76.56
2022-12-13T20:31:35.602Z,75.54
2022-12-13T20:36:39.534Z,76.00
2022-12-13T20:41:42.326Z,76.51
2022-12-13T20:46:44.878Z,75.08
2022-12-13T20:51:48.756Z,76.99
2022-12-13T20:56:51.286Z,75.42
2022-12-13T21:01:53.877Z,75.46
2022-12-13T21:06:58.175Z,76.06
2022-12-13T21:12:00.603Z,75.50
2022-12-13T21:17:04.779Z,74.74
2022-12-13T21:22:08.595Z,74.16
2022-12-13T21:27:11.049Z,74.36
2022-12-13T21:32:13.488Z,75.25
2022-12-13T21:37:17.513Z,75.13
2022-12-13T21:42:23.098Z,74.75
2022-12-13T21:47:25.598Z,76.92
2022-12-13T21:52:46.561Z,75.83
2022-12-13T21:58:09.582Z,75.03
2022-12-13T22:03:12.254Z,76.40
2022-12-13T22:08:16.093Z,75.02
2022-12-13T22:13:18.721Z,74.77
2022-12-13T22:18:21.228Z,75.80
2022-12-13T22:23:25.264Z,78.70
2022-12-13T22:28:29.703Z,80.20
2022-12-13T22:33:32.940Z,77.93
2022-12-13T22:38:36.990Z,75.58
2022-12-13T22:43:39.656Z,76.20
2022-12-13T22:48:42.250Z,75.58
2022-12-13T22:53:47.117Z,75.12
2022-12-13T22:58:53.927Z,76.04
2022-12-13T23:03:56.891Z,74.98
2022-12-13T23:09:01.579Z,74.24
2022-12-13T23:14:05.160Z,73.92
2022-12-13T23:19:40.179Z,73.72
2022-12-13T23:24:34.098Z,73.68
2022-12-13T23:29:36.867Z,73.86
2022-12-13T23:34:39.462Z,74.20
2022-12-13T23:39:43.473Z,73.45
2022-12-13T23:44:47.755Z,74.32
2022-12-13T23:49:50.488Z,74.72
2022-12-13T23:54:54.363Z,74.91
2022-12-13T23:59:56.913Z,73.91
